createdAt,value
2022-12-13T00:01:20.832Z,98132.50
2022-12-13T00:03:47.980Z,98128.38
2022-12-13T00:06:15.054Z,98127.06
2022-12-13T00:08:42.075Z,98123.59
2022-12-13T00:11:12.682Z,98127.06
2022-12-13T00:13:40.503Z,98118.22
2022-12-13T00:16:10.621Z,98121.44
2022-12-13T00:18:37.595Z,98104.28
2022-12-13T00:21:09.712Z,98113.88
2022-12-13T00:23:36.871Z,98110.41
2022-12-13T00:26:08.300Z,98111.41
2022-12-13T00:28:34.921Z,98107.38
2022-12-13T00:31:26.139Z,98101.88
2022-12-13T00:33:50.212Z,98100.38
2022-12-13T00:36:17.441Z,98095.06
2022-12-13T00:38:44.612Z,98102.47
2022-12-13T00:41:17.207Z,98090.66
2022-12-13T00:43:44.544Z,98095.91
2022-12-13T00:46:19.746Z,98092.03
2022-12-13T00:48:51.931Z,98091.06
2022-12-13T00:51:19.404Z,98082.38
2022-12-13T00:53:46.106Z,98076.03
2022-12-13T00:56:15.582Z,98082.50
2022-12-13T00:58:46.103Z,98077.78
2022-12-13T01:01:18.759Z,98078.41
2022-12-13T01:03:45.571Z,98080.69
2022-12-13T01:06:26.195Z,98075.16
2022-12-13T01:08:53.050Z,98071.88
2022-12-13T01:11:20.140Z,98070.50
2022-12-13T01:13:47.094Z,98073.69
2022-12-13T01:16:14.133Z,98074.06
2022-12-13T01:18:41.536Z,98075.94
2022-12-13T01:21:12.982Z,98069.53
2022-12-13T01:23:40.634Z,98076.91
2022-12-13T01:26:09.904Z,98072.50
2022-12-13T01:28:36.637Z,98078.56
2022-12-13T01:31:06.669Z,98073.69
2022-12-13T01:33:33.751Z,98072.88
2022-12-13T01:36:02.443Z,98073.44
2022-12-13T01:38:29.412Z,98066.94
2022-12-13T01:40:59.714Z,98074.75
2022-12-13T01:43:30.448Z,98074.25
2022-12-13T01:45:57.090Z,98070.47
2022-12-13T01:48:29.539Z,98074.03
2022-12-13T01:51:02.047Z,98075.50
2022-12-13T01:53:33.740Z,98074.59
2022-12-13T01:56:09.164Z,98066.25
2022-12-13T01:58:37.376Z,98063.44
2022-12-13T02:01:05.047Z,98063.69
2022-12-13T02:03:33.240Z,98062.63
2022-12-13T02:06:12.223Z,98063.06
2022-12-13T02:08:41.661Z,98062.63
2022-12-13T02:11:10.137Z,98063.59
2022-12-13T02:13:37.826Z,98064.41
2022-12-13T02:16:29.170Z,98066.78
2022-12-13T02:19:04.704Z,98071.34
2022-12-13T02:21:49.821Z,98071.75
2022-12-13T02:24:49.148Z,98068.94
2022-12-13T02:27:31.184Z,98068.59
2022-12-13T02:30:19.796Z,98062.09
2022-12-13T02:33:04.655Z,98066.19
2022-12-13T02:36:08.927Z,98061.94
2022-12-13T02:38:50.419Z,98063.50
2022-12-13T02:41:25.343Z,98058.56
2022-12-13T02:44:22.512Z,98057.69
2022-12-13T02:47:21.755Z,98057.06
2022-12-13T02:49:52.552Z,98052.25
2022-12-13T02:52:23.034Z,98054.78
2022-12-13T02:54:49.865Z,98056.19
2022-12-13T02:57:46.127Z,98043.34
2022-12-13T03:00:16.816Z,98047.78
2022-12-13T03:03:09.324Z,98048.81
2022-12-13T03:06:17.135Z,98043.44
2022-12-13T03:08:47.886Z,98044.19
2022-12-13T03:11:16.628Z,98040.19
2022-12-13T03:13:57.590Z,98038.78
2022-12-13T03:16:34.670Z,98045.50
2022-12-13T03:19:04.525Z,98041.72
2022-12-13T03:21:47.401Z,98036.50
2022-12-13T03:24:18.115Z,98041.31
2022-12-13T03:26:45.321Z,98033.63
2022-12-13T03:29:12.136Z,98031.88
2022-12-13T03:31:38.882Z,98035.88
2022-12-13T03:34:05.607Z,98032.88
2022-12-13T03:36:32.946Z,98044.53
2022-12-13T03:38:59.652Z,98046.81
2022-12-13T03:41:31.942Z,98048.31
2022-12-13T03:44:00.455Z,98044.56
2022-12-13T03:46:27.083Z,98041.44
2022-12-13T03:48:53.729Z,98047.88
2022-12-13T03:51:20.408Z,98045.91
2022-12-13T03:53:47.218Z,98048.03
2022-12-13T03:56:14.063Z,98049.97
2022-12-13T03:58:42.476Z,98039.38
2022-12-13T04:01:12.367Z,98044.75
2022-12-13T04:03:41.200Z,98057.41
2022-12-13T04:06:09.287Z,98044.47
2022-12-13T04:08:37.637Z,98055.50
2022-12-13T04:11:23.722Z,98051.22
2022-12-13T04:13:50.511Z,98044.84
2022-12-13T04:16:17.256Z,98042.16
2022-12-13T04:18:44.202Z,98041.13
2022-12-13T04:21:10.997Z,98039.19
2022-12-13T04:23:37.471Z,98043.31
2022-12-13T04:26:04.066Z,98042.38
2022-12-13T04:28:30.712Z,98042.16
2022-12-13T04:30:57.376Z,98040.38
2022-12-13T04:33:24.844Z,98043.91
2022-12-13T04:35:51.868Z,98047.53
2022-12-13T04:38:18.854Z,98039.38
2022-12-13T04:40:45.833Z,98038.75
2022-12-13T04:43:12.603Z,98040.38
2022-12-13T04:45:39.376Z,98035.19
2022-12-13T04:48:06.466Z,98040.56
2022-12-13T04:50:33.590Z,98043.31
2022-12-13T04:53:00.603Z,98040.44
2022-12-13T04:55:27.303Z,98039.25
2022-12-13T04:57:53.941Z,98029.94
2022-12-13T05:00:22.521Z,98029.94
2022-12-13T05:02:49.550Z,98026.66
2022-12-13T05:05:16.499Z,98026.88
2022-12-13T05:07:43.469Z,98030.53
2022-12-13T05:10:12.027Z,98025.28
2022-12-13T05:12:39.075Z,98025.00
2022-12-13T05:15:06.397Z,98026.75
2022-12-13T05:17:33.174Z,98030.38
2022-12-13T05:19:59.880Z,98024.53
2022-12-13T05:22:26.769Z,98029.50
2022-12-13T05:24:53.444Z,98032.97
2022-12-13T05:27:25.509Z,98033.41
2022-12-13T05:30:03.584Z,98035.41
2022-12-13T05:32:43.543Z,98042.59
2022-12-13T05:35:11.724Z,98037.09
2022-12-13T05:37:38.320Z,98034.44
2022-12-13T05:40:05.629Z,98036.72
2022-12-13T05:42:32.364Z,98038.97
2022-12-13T05:44:58.930Z,98034.00
2022-12-13T05:47:25.593Z,98027.19
2022-12-13T05:49:52.345Z,98024.00
2022-12-13T05:52:20.515Z,98029.03
2022-12-13T05:54:47.247Z,98025.44
2022-12-13T05:57:14.312Z,98027.19
2022-12-13T05:59:41.039Z,98029.53
2022-12-13T06:02:07.557Z,98030.53
2022-12-13T06:04:34.280Z,98030.28
2022-12-13T06:07:00.769Z,98034.59
2022-12-13T06:09:27.374Z,98035.09
2022-12-13T06:12:01.152Z,98036.91
2022-12-13T06:14:28.682Z,98036.16
2022-12-13T06:16:55.871Z,98022.97
2022-12-13T06:19:23.517Z,98033.56
2022-12-13T06:21:51.397Z,98033.72
2022-12-13T06:24:19.702Z,98038.22
2022-12-13T06:26:47.468Z,98035.59
2022-12-13T06:29:23.234Z,98038.22
2022-12-13T06:32:02.245Z,98043.97
2022-12-13T06:34:32.462Z,98053.09
2022-12-13T06:36:59.256Z,98051.53
2022-12-13T06:39:38.922Z,98045.47
2022-12-13T06:42:07.752Z,98056.19
2022-12-13T06:44:34.838Z,98059.41
2022-12-13T06:47:10.262Z,98049.78
2022-12-13T06:49:39.420Z,98056.25
2022-12-13T06:52:09.726Z,98057.63
2022-12-13T06:54:36.326Z,98064.50
2022-12-13T06:57:02.941Z,98058.00
2022-12-13T06:59:29.623Z,98060.91
2022-12-13T07:02:03.257Z,98059.59
2022-12-13T07:04:31.588Z,98063.38
2022-12-13T07:07:01.578Z,98061.69
2022-12-13T07:09:31.002Z,98064.53
2022-12-13T07:11:58.454Z,98062.00
2022-12-13T07:14:25.047Z,98059.47
2022-12-13T07:16:51.750Z,98063.94
2022-12-13T07:19:23.924Z,98058.22
2022-12-13T07:21:51.829Z,98063.50
2022-12-13T07:24:18.700Z,98058.63
2022-12-13T07:26:45.262Z,98067.53
2022-12-13T07:29:11.938Z,98067.72
2022-12-13T07:31:38.911Z,98074.53
2022-12-13T07:34:05.742Z,98071.88
2022-12-13T07:36:32.469Z,98069.19
2022-12-13T07:38:59.035Z,98068.91
2022-12-13T07:41:27.036Z,98072.81
2022-12-13T07:43:55.586Z,98069.13
2022-12-13T07:46:32.384Z,98071.47
2022-12-13T07:49:02.137Z,98067.69
2022-12-13T07:51:29.041Z,98070.19
2022-12-13T07:53:55.655Z,98064.50
2022-12-13T07:56:22.310Z,98065.50
2022-12-13T07:58:48.958Z,98072.22
2022-12-13T08:01:15.668Z,98072.78
2022-12-13T08:03:42.307Z,98071.47
2022-12-13T08:06:11.414Z,98072.59
2022-12-13T08:08:38.804Z,98075.47
2022-12-13T08:11:06.745Z,98065.72
2022-12-13T08:13:34.554Z,98059.22
2022-12-13T08:16:03.203Z,98056.34
2022-12-13T08:18:31.760Z,98060.22
2022-12-13T08:21:10.465Z,98057.00
2022-12-13T08:23:50.744Z,98060.47
2022-12-13T08:26:17.494Z,98055.00
2022-12-13T08:28:44.182Z,98059.09
2022-12-13T08:31:12.415Z,98055.31
2022-12-13T08:33:40.485Z,98057.31
2022-12-13T08:36:11.664Z,98058.50
2022-12-13T08:38:38.679Z,98070.22
2022-12-13T08:41:06.551Z,98070.00
2022-12-13T08:43:33.257Z,98063.88
2022-12-13T08:46:01.045Z,98063.91
2022-12-13T08:48:28.671Z,98055.34
2022-12-13T08:50:59.732Z,98064.75
2022-12-13T08:53:28.936Z,98059.13
2022-12-13T08:56:05.689Z,98065.44
2022-12-13T08:58:32.336Z,98064.44
2022-12-13T09:00:59.330Z,98049.38
2022-12-13T09:03:26.007Z,98056.59
2022-12-13T09:05:52.593Z,98052.94
2022-12-13T09:08:23.891Z,98051.53
2022-12-13T09:11:00.123Z,98045.72
2022-12-13T09:13:33.153Z,98039.13
2022-12-13T09:16:25.099Z,98044.88
2022-12-13T09:18:55.476Z,98048.88
2022-12-13T09:21:31.252Z,98048.63
2022-12-13T09:24:01.353Z,98050.31
2022-12-13T09:26:38.748Z,98055.91
2022-12-13T09:29:10.878Z,98047.69
2022-12-13T09:31:40.642Z,98051.03
2022-12-13T09:34:08.609Z,98055.19
2022-12-13T09:36:35.224Z,98053.44
2022-12-13T09:39:01.780Z,98045.91
2022-12-13T09:41:29.055Z,98054.00
2022-12-13T09:44:03.178Z,98044.81
2022-12-13T09:46:44.387Z,98041.47
2022-12-13T09:49:22.863Z,98037.03
2022-12-13T09:52:10.099Z,98044.13
2022-12-13T09:54:47.775Z,98049.28
2022-12-13T09:57:32.349Z,98049.88
2022-12-13T10:00:08.461Z,98050.53
2022-12-13T10:02:43.440Z,98045.34
2022-12-13T10:05:22.734Z,98030.59
2022-12-13T10:07:55.495Z,98028.50
2022-12-13T10:10:22.456Z,98026.81
2022-12-13T10:13:10.654Z,98016.00
2022-12-13T10:15:41.766Z,98013.44
2022-12-13T10:18:12.813Z,98016.84
2022-12-13T10:20:39.366Z,98013.84
2022-12-13T10:23:33.382Z,98013.97
2022-12-13T10:26:02.830Z,98008.03
2022-12-13T10:28:33.345Z,98004.59
2022-12-13T10:31:01.926Z,98002.84
2022-12-13T10:33:35.303Z,98003.72
2022-12-13T10:36:05.159Z,97992.44
2022-12-13T10:38:36.212Z,97993.06
2022-12-13T10:41:03.498Z,98000.44
2022-12-13T10:43:30.711Z,97999.53
2022-12-13T10:46:00.446Z,97998.94
2022-12-13T10:48:38.662Z,98007.41
2022-12-13T10:51:09.846Z,98008.91
2022-12-13T10:53:47.473Z,98012.22
2022-12-13T10:56:22.790Z,98013.44
2022-12-13T10:59:15.174Z,98009.22
2022-12-13T11:01:44.729Z,98005.38
2022-12-13T11:04:29.484Z,98007.81
2022-12-13T11:06:58.646Z,98008.88
2022-12-13T11:09:39.185Z,98007.09
2022-12-13T11:12:18.899Z,98009.22
2022-12-13T11:15:02.669Z,98005.72
2022-12-13T11:17:31.900Z,97992.81
2022-12-13T11:20:02.660Z,97991.06
2022-12-13T11:22:37.592Z,97987.16
2022-12-13T11:25:09.790Z,97993.31
2022-12-13T11:27:55.149Z,97989.22
2022-12-13T11:30:26.480Z,97985.63
2022-12-13T11:33:16.888Z,97985.66
2022-12-13T11:36:03.899Z,97979.50
2022-12-13T11:38:47.618Z,97973.28
2022-12-13T11:41:31.751Z,97967.88
2022-12-13T11:44:09.888Z,97969.50
2022-12-13T11:46:45.382Z,97965.47
2022-12-13T11:49:32.448Z,97962.91
2022-12-13T11:52:21.517Z,97958.25
2022-12-13T11:54:57.569Z,97965.25
2022-12-13T11:57:45.330Z,97955.91
2022-12-13T12:00:35.545Z,97949.78
2022-12-13T12:03:21.638Z,97951.44
2022-12-13T12:05:57.244Z,97952.75
2022-12-13T12:08:48.041Z,97954.75
2022-12-13T12:11:35.350Z,97942.03
2022-12-13T12:14:13.047Z,97949.25
2022-12-13T12:16:59.118Z,97953.31
2022-12-13T12:19:31.685Z,97952.81
2022-12-13T12:22:15.413Z,97949.25
2022-12-13T12:24:45.395Z,97940.63
2022-12-13T12:27:50.399Z,97938.19
2022-12-13T12:30:23.516Z,97938.47
2022-12-13T12:33:17.964Z,97939.31
2022-12-13T12:36:12.140Z,97937.84
2022-12-13T12:39:02.055Z,97938.47
2022-12-13T12:41:48.468Z,97939.00
2022-12-13T12:44:37.010Z,97939.13
2022-12-13T12:48:08.924Z,97930.47
2022-12-13T12:50:35.119Z,97926.75
2022-12-13T12:53:50.308Z,97934.63
2022-12-13T12:56:35.382Z,97934.38
2022-12-13T12:59:27.335Z,97931.13
2022-12-13T13:01:53.964Z,97936.19
2022-12-13T13:04:27.402Z,97945.88
2022-12-13T13:07:23.367Z,97933.91
2022-12-13T13:09:54.878Z,97930.63
2022-12-13T13:12:29.335Z,97922.13
2022-12-13T13:14:57.960Z,97924.56
2022-12-13T13:17:24.643Z,97934.81
2022-12-13T13:20:13.979Z,97931.75
2022-12-13T13:22:44.252Z,97931.50
2022-12-13T13:25:35.180Z,97937.47
2022-12-13T13:28:13.527Z,97939.41
2022-12-13T13:31:08.317Z,97937.84
2022-12-13T13:34:21.255Z,97943.56
2022-12-13T13:36:48.060Z,97947.94
2022-12-13T13:39:34.186Z,97942.97
2022-12-13T13:42:21.725Z,97938.50
2022-12-13T13:44:48.426Z,97941.06
2022-12-13T13:47:21.010Z,97940.59
2022-12-13T13:50:13.507Z,97940.50
2022-12-13T13:52:52.258Z,97943.22
2022-12-13T13:55:24.952Z,97951.00
2022-12-13T13:58:21.926Z,97945.13
2022-12-13T14:01:10.500Z,97948.50
2022-12-13T14:03:48.964Z,97946.56
2022-12-13T14:06:24.502Z,97954.25
2022-12-13T14:09:22.846Z,97948.84
2022-12-13T14:12:17.736Z,97947.69
2022-12-13T14:15:22.188Z,97951.03
2022-12-13T14:18:04.015Z,97944.91
2022-12-13T14:21:06.237Z,97946.59
2022-12-13T14:23:57.567Z,97937.91
2022-12-13T14:26:38.406Z,97932.84
2022-12-13T14:29:14.568Z,97942.88
2022-12-13T14:31:47.175Z,97943.34
2022-12-13T14:34:24.807Z,97948.47
2022-12-13T14:36:57.627Z,97954.22
2022-12-13T14:39:29.623Z,97951.47
2022-12-13T14:41:59.157Z,97946.25
2022-12-13T14:44:36.248Z,97955.50
2022-12-13T14:47:08.186Z,97938.13
2022-12-13T14:49:39.113Z,97946.44
2022-12-13T14:52:07.154Z,97943.47
2022-12-13T14:54:51.808Z,97939.06
2022-12-13T14:57:27.307Z,97951.69
2022-12-13T14:59:56.579Z,97951.63
2022-12-13T15:02:30.993Z,97957.56
2022-12-13T15:05:03.993Z,97945.16
2022-12-13T15:07:35.910Z,97938.81
2022-12-13T15:10:05.054Z,97926.53
2022-12-13T15:12:32.508Z,97931.31
2022-12-13T15:15:02.716Z,97924.94
2022-12-13T15:17:34.145Z,97923.94
2022-12-13T15:20:01.914Z,97923.06
2022-12-13T15:22:29.815Z,97930.53
2022-12-13T15:24:58.120Z,97927.78
2022-12-13T15:27:25.844Z,97932.38
2022-12-13T15:29:54.476Z,97931.81
2022-12-13T15:32:25.441Z,97922.31
2022-12-13T15:34:52.393Z,97930.09
2022-12-13T15:37:31.476Z,97929.97
2022-12-13T15:40:06.071Z,97926.22
2022-12-13T15:42:35.954Z,97917.78
2022-12-13T15:45:17.539Z,97915.63
2022-12-13T15:47:47.071Z,97911.41
2022-12-13T15:50:31.293Z,97904.31
2022-12-13T15:53:17.772Z,97907.38
2022-12-13T15:55:44.691Z,97893.47
2022-12-13T15:58:35.529Z,97904.00
2022-12-13T16:01:05.966Z,97901.06
2022-12-13T16:03:44.764Z,97901.72
2022-12-13T16:06:18.633Z,97906.81
2022-12-13T16:08:50.186Z,97905.09
2022-12-13T16:11:36.553Z,97905.09
2022-12-13T16:14:31.764Z,97915.06
2022-12-13T16:17:20.827Z,97907.31
2022-12-13T16:19:47.535Z,97902.88
2022-12-13T16:22:14.388Z,97905.78
2022-12-13T16:24:41.078Z,97905.59
2022-12-13T16:27:11.690Z,97903.66
2022-12-13T16:29:38.589Z,97897.50
2022-12-13T16:32:08.070Z,97897.13
2022-12-13T16:34:35.592Z,97895.72
2022-12-13T16:37:02.368Z,97895.31
2022-12-13T16:39:35.471Z,97897.06
2022-12-13T16:42:02.181Z,97897.06
2022-12-13T16:44:37.890Z,97894.47
2022-12-13T16:47:13.210Z,97893.50
2022-12-13T16:49:46.162Z,97891.72
2022-12-13T16:52:12.833Z,97890.75
2022-12-13T16:54:39.563Z,97891.63
2022-12-13T16:57:06.204Z,97888.34
2022-12-13T16:59:33.278Z,97885.66
2022-12-13T17:02:00.040Z,97884.13
2022-12-13T17:04:29.677Z,97889.22
2022-12-13T17:06:56.742Z,97884.00
2022-12-13T17:09:25.131Z,97888.06
2022-12-13T17:11:51.957Z,97893.88
2022-12-13T17:14:18.538Z,97899.88
2022-12-13T17:16:45.360Z,97897.22
2022-12-13T17:19:14.708Z,97900.59
2022-12-13T17:21:41.309Z,97905.69
2022-12-13T17:24:08.642Z,97897.84
2022-12-13T17:26:35.341Z,97904.56
2022-12-13T17:29:02.018Z,97899.22
2022-12-13T17:31:35.217Z,97899.84
2022-12-13T17:34:02.913Z,97894.53
2022-12-13T17:36:31.690Z,97893.63
2022-12-13T17:38:58.593Z,97887.56
2022-12-13T17:41:25.292Z,97882.94
2022-12-13T17:43:52.035Z,97882.50
2022-12-13T17:46:19.554Z,97877.97
2022-12-13T17:48:54.485Z,97878.28
2022-12-13T17:51:21.052Z,97872.38
2022-12-13T17:53:47.741Z,97871.56
2022-12-13T17:56:17.724Z,97870.19
2022-12-13T17:58:45.120Z,97874.78
2022-12-13T18:01:24.129Z,97876.41
2022-12-13T18:03:55.962Z,97874.94
2022-12-13T18:06:24.526Z,97863.94
2022-12-13T18:08:51.276Z,97865.19
2022-12-13T18:11:35.371Z,97866.41
2022-12-13T18:14:03.616Z,97862.19
2022-12-13T18:16:36.525Z,97857.94
2022-12-13T18:19:06.240Z,97858.19
2022-12-13T18:21:33.779Z,97860.59
2022-12-13T18:24:00.785Z,97861.25
2022-12-13T18:26:27.420Z,97858.47
2022-12-13T18:28:54.094Z,97865.09
2022-12-13T18:31:23.664Z,97868.66
2022-12-13T18:33:52.701Z,97872.44
2022-12-13T18:36:20.999Z,97875.59
2022-12-13T18:38:49.323Z,97873.31
2022-12-13T18:41:18.957Z,97872.13
2022-12-13T18:43:46.278Z,97876.34
2022-12-13T18:46:15.047Z,97870.66
2022-12-13T18:48:42.273Z,97877.53
2022-12-13T18:51:10.653Z,97875.91
2022-12-13T18:53:38.572Z,97871.13
2022-12-13T18:56:17.750Z,97868.47
2022-12-13T18:58:45.252Z,97858.94
2022-12-13T19:01:13.117Z,97859.75
2022-12-13T19:03:40.332Z,97863.00
2022-12-13T19:06:07.820Z,97860.25
2022-12-13T19:08:36.629Z,97854.31
2022-12-13T19:11:03.996Z,97856.84
2022-12-13T19:13:32.001Z,97856.16
2022-12-13T19:16:05.839Z,97851.31
2022-12-13T19:18:33.197Z,97853.28
2022-12-13T19:20:59.749Z,97840.56
2022-12-13T19:23:26.812Z,97843.00
2022-12-13T19:25:53.790Z,97842.91
2022-12-13T19:28:20.512Z,97853.81
2022-12-13T19:30:48.026Z,97842.38
2022-12-13T19:33:15.573Z,97844.00
2022-12-13T19:35:45.364Z,97837.91
2022-12-13T19:38:12.406Z,97838.72
2022-12-13T19:40:40.879Z,97843.84
2022-12-13T19:43:07.618Z,97839.88
2022-12-13T19:45:34.464Z,97840.66
2022-12-13T19:48:01.202Z,97830.56
2022-12-13T19:50:29.611Z,97834.44
2022-12-13T19:52:56.751Z,97835.19
2022-12-13T19:55:23.429Z,97830.81
2022-12-13T19:57:50.181Z,97823.00
2022-12-13T20:00:17.419Z,97818.28
2022-12-13T20:02:44.174Z,97822.63
2022-12-13T20:05:10.989Z,97828.41
2022-12-13T20:07:37.727Z,97826.06
2022-12-13T20:10:05.959Z,97822.06
2022-12-13T20:12:38.799Z,97812.47
2022-12-13T20:15:06.532Z,97810.56
2022-12-13T20:17:33.265Z,97810.69
2022-12-13T20:19:59.974Z,97806.88
2022-12-13T20:22:26.692Z,97808.09
2022-12-13T20:24:53.355Z,97802.06
2022-12-13T20:27:20.088Z,97798.72
2022-12-13T20:29:49.049Z,97791.94
2022-12-13T20:32:16.308Z,97792.91
2022-12-13T20:34:43.150Z,97790.31
2022-12-13T20:37:09.837Z,97784.59
2022-12-13T20:39:36.610Z,97785.22
2022-12-13T20:42:03.325Z,97794.44
2022-12-13T20:44:30.050Z,97780.03
2022-12-13T20:46:56.838Z,97783.25
2022-12-13T20:49:23.509Z,97787.41
2022-12-13T20:51:50.701Z,97795.09
2022-12-13T20:54:17.328Z,97794.34
2022-12-13T20:56:44.007Z,97793.63
2022-12-13T20:59:14.048Z,97790.44
2022-12-13T21:01:42.081Z,97786.34
2022-12-13T21:04:10.482Z,97784.81
2022-12-13T21:06:40.757Z,97788.53
2022-12-13T21:09:08.934Z,97780.97
2022-12-13T21:11:36.818Z,97785.31
2022-12-13T21:14:22.469Z,97769.03
2022-12-13T21:16:53.188Z,97775.78
2022-12-13T21:19:25.996Z,97768.38
2022-12-13T21:21:54.464Z,97774.31
2022-12-13T21:24:22.955Z,97776.63
2022-12-13T21:26:51.350Z,97776.41
2022-12-13T21:29:18.874Z,97764.44
2022-12-13T21:31:49.208Z,97764.59
2022-12-13T21:34:17.120Z,97767.94
2022-12-13T21:36:46.187Z,97761.97
2022-12-13T21:39:16.170Z,97753.63
2022-12-13T21:41:43.349Z,97749.31
2022-12-13T21:44:11.536Z,97746.81
2022-12-13T21:49:24.742Z,97747.13
2022-12-13T21:51:51.518Z,97753.31
2022-12-13T21:54:18.830Z,97755.16
2022-12-13T21:57:04.047Z,97745.91
2022-12-13T21:59:31.055Z,97733.16
2022-12-13T22:02:18.514Z,97728.94
2022-12-13T22:04:50.318Z,97729.47
2022-12-13T22:07:18.696Z,97736.28
2022-12-13T22:09:46.521Z,97728.81
2022-12-13T22:12:25.005Z,97726.34
2022-12-13T22:14:53.053Z,97728.13
2022-12-13T22:17:26.956Z,97724.72
2022-12-13T22:19:58.556Z,97724.94
2022-12-13T22:22:25.563Z,97721.41
2022-12-13T22:24:53.860Z,97717.28
2022-12-13T22:27:24.369Z,97720.03
2022-12-13T22:29:57.338Z,97714.22
2022-12-13T22:32:27.254Z,97718.53
2022-12-13T22:34:54.381Z,97706.66
2022-12-13T22:37:21.565Z,97704.06
2022-12-13T22:39:48.507Z,97689.78
2022-12-13T22:42:15.695Z,97694.19
2022-12-13T22:44:42.452Z,97684.91
2022-12-13T22:47:09.141Z,97679.84
2022-12-13T22:49:35.817Z,97685.13
2022-12-13T22:52:02.523Z,97676.66
2022-12-13T22:54:29.265Z,97671.66
2022-12-13T22:56:55.902Z,97675.16
2022-12-13T22:59:22.560Z,97682.06
2022-12-13T23:01:49.311Z,97672.78
2022-12-13T23:04:15.933Z,97675.47
2022-12-13T23:06:42.673Z,97671.22
2022-12-13T23:09:12.684Z,97672.19
2022-12-13T23:11:58.192Z,97669.63
2022-12-13T23:14:31.050Z,97673.06
2022-12-13T23:16:58.111Z,97667.22
2022-12-13T23:19:41.651Z,97656.19
2022-12-13T23:22:11.866Z,97648.41
2022-12-13T23:24:38.479Z,97646.72
2022-12-13T23:27:05.144Z,97646.81
2022-12-13T23:29:31.860Z,97638.34
2022-12-13T23:31:58.471Z,97634.97
2022-12-13T23:34:25.142Z,97630.94
2022-12-13T23:36:51.914Z,97622.50
2022-12-13T23:39:18.512Z,97623.53
2022-12-13T23:41:45.145Z,97628.63
2022-12-13T23:44:11.892Z,97623.63
2022-12-13T23:46:38.606Z,97622.81
2022-12-13T23:49:06.603Z,97622.09
2022-12-13T23:51:34.568Z,97616.91
2022-12-13T23:54:01.470Z,97618.59
2022-12-13T23:56:29.330Z,97611.78
2022-12-13T23:58:56.119Z,97596.34
